Terminal Aerodrome Forecast
Issued by NWS

Home | Current Version | Previous Version | Text Only | Print | Product List | Glossary On
Versions: 1 2 3 4 5 6 7 8 9 10 11 12 13 14 15
747
FTUS46 KMTR 292356
TAFOAK
TAF
KOAK 292356Z 3000/3106 30016KT P6SM SKC
     FM300400 29010KT P6SM FEW008
      TEMPO 3011/3015 BKN008
     FM301700 28009KT 6SM HZ FEW009
     FM302100 29014KT 5SM HZ FEW011 SCT100
     FM310300 28010KT 5SM HZ FEW009 SCT100=

USA.gov is the U.S. government's official web portal to all federal, state and local government web resources and services.